Time;durP1;ratioP1;P1;durP2;ratioP2;P2;SDS_P1;SDS_P2;PMS_P1;PMS_P2;Temp;Humidity;BMP_temperature;BMP_pressure;BME280_temperature;BME280_humidity;BME280_pressure;Samples;Min_cycle;Max_cycle;Signal;HPM_P1;HPM_P2
2021/08/01 00:02:28;;;;;;;7.57;4.95;;;16.70;99.90;;;;;;6283577;28;20361;-84
2021/08/01 00:05:28;;;;;;;9.10;4.93;;;15.10;99.90;;;;;;6300569;28;20078;-84
2021/08/01 00:08:29;;;;;;;6.80;4.47;;;16.70;99.90;;;;;;6283562;28;20020;-84
2021/08/01 00:11:30;;;;;;;7.15;4.60;;;16.70;99.90;;;;;;6300113;28;20085;-83
2021/08/01 00:14:30;;;;;;;7.80;5.28;;;16.70;99.90;;;;;;6283733;28;20118;-83
2021/08/01 00:17:31;;;;;;;7.03;5.05;;;16.70;99.90;;;;;;6300779;28;20080;-85
2021/08/01 00:20:31;;;;;;;7.03;5.22;;;16.60;99.90;;;;;;6283462;28;20028;-84
2021/08/01 00:23:33;;;;;;;7.63;5.15;;;16.70;99.90;;;;;;6283693;28;20055;-83
2021/08/01 00:26:34;;;;;;;8.27;5.20;;;16.70;99.90;;;;;;6283710;28;20609;-84
2021/08/01 00:29:34;;;;;;;7.05;5.47;;;16.70;99.90;;;;;;6284388;28;20055;-85
2021/08/01 00:32:36;;;;;;;7.93;5.28;;;16.70;99.90;;;;;;6299759;28;20553;-84
2021/08/01 00:35:36;;;;;;;8.73;5.40;;;16.70;99.90;;;;;;6283486;28;20517;-84
2021/08/01 00:38:37;;;;;;;9.88;5.03;;;16.70;99.90;;;;;;6283401;28;20035;-85
2021/08/01 00:41:37;;;;;;;6.65;4.95;;;16.70;99.90;;;;;;6282860;28;20131;-83
2021/08/01 00:44:38;;;;;;;6.95;5.10;;;16.70;99.90;;;;;;6283398;28;20434;-84
2021/08/01 00:47:39;;;;;;;6.72;5.50;;;16.70;99.90;;;;;;6300437;28;20461;-85
2021/08/01 00:50:43;;;;;;;5.73;4.57;;;16.30;99.90;;;;;;6299873;28;20024;-85
2021/08/01 00:53:44;;;;;;;8.35;5.43;;;16.70;99.90;;;;;;6283014;28;20056;-84
2021/08/01 00:56:44;;;;;;;8.57;4.97;;;16.90;99.90;;;;;;6299978;28;20077;-84
2021/08/01 00:59:45;;;;;;;6.90;4.93;;;16.60;99.90;;;;;;6282745;28;20032;-84
2021/08/01 01:02:46;;;;;;;6.50;5.50;;;16.60;99.90;;;;;;6283047;28;20028;-85
2021/08/01 01:06:16;;;;;;;6.50;5.60;;;16.60;99.90;;;;;;6283518;28;20042;-85
2021/08/01 01:09:37;;;;;;;6.95;5.70;;;16.70;99.90;;;;;;6316428;28;20036;-85
2021/08/01 01:13:10;;;;;;;9.02;5.15;;;16.60;99.90;;;;;;6315463;28;20036;-84
2021/08/01 01:16:11;;;;;;;5.80;5.18;;;16.60;99.90;;;;;;6305336;28;20035;-85
2021/08/01 01:19:14;;;;;;;8.10;5.43;;;16.60;99.90;;;;;;6287727;28;20028;-84
2021/08/01 01:22:19;;;;;;;7.43;5.55;;;16.60;99.90;;;;;;6288343;28;20119;-86
2021/08/01 01:25:49;;;;;;;6.20;5.38;;;16.60;99.90;;;;;;6288013;28;20016;-85
2021/08/01 01:29:06;;;;;;;6.68;5.97;;;16.70;99.90;;;;;;6304359;28;20759;-84
2021/08/01 01:32:10;;;;;;;8.98;5.57;;;16.70;99.90;;;;;;6320917;28;20111;-84
2021/08/01 01:35:17;;;;;;;8.68;5.78;;;16.80;99.90;;;;;;6288194;28;20028;-85
2021/08/01 01:38:18;;;;;;;8.98;6.20;;;16.60;99.90;;;;;;6304699;28;20143;-84
2021/08/01 01:41:19;;;;;;;11.00;6.20;;;16.50;99.90;;;;;;6287615;28;20080;-84
2021/08/01 01:44:19;;;;;;;7.93;5.55;;;16.40;99.90;;;;;;6303706;28;20028;-85
2021/08/01 01:47:20;;;;;;;6.13;5.35;;;16.40;99.90;;;;;;6287375;28;20032;-86
2021/08/01 01:50:20;;;;;;;8.23;6.38;;;16.40;99.90;;;;;;6286664;28;20016;-84
2021/08/01 01:53:21;;;;;;;9.60;5.40;;;16.30;99.90;;;;;;6286916;28;20048;-84
2021/08/01 01:56:22;;;;;;;8.48;4.75;;;16.20;99.90;;;;;;6287109;28;20853;-86
2021/08/01 01:59:22;;;;;;;7.05;5.22;;;16.60;99.90;;;;;;6287170;28;20043;-85
2021/08/01 02:02:23;;;;;;;7.68;5.25;;;16.10;99.90;;;;;;6287082;28;20039;-85
2021/08/01 02:05:23;;;;;;;6.95;5.07;;;16.00;99.90;;;;;;6303945;28;20099;-85
2021/08/01 02:08:24;;;;;;;6.22;5.10;;;15.90;99.90;;;;;;6286791;28;20473;-84
2021/08/01 02:11:29;;;;;;;7.40;4.90;;;15.90;99.90;;;;;;6303676;28;20024;-86
2021/08/01 02:14:33;;;;;;;7.05;5.28;;;15.80;99.90;;;;;;6287042;28;20452;-85
2021/08/01 02:17:55;;;;;;;8.10;4.78;;;15.90;99.90;;;;;;6304191;28;20028;-86
2021/08/01 02:20:56;;;;;;;6.20;4.55;;;15.80;99.90;;;;;;6320238;28;20149;-85
2021/08/01 02:23:56;;;;;;;4.90;4.10;;;16.00;99.90;;;;;;6286171;28;20367;-85
2021/08/01 02:26:57;;;;;;;6.38;4.57;;;15.50;99.90;;;;;;6285943;28;20020;-86
2021/08/01 02:29:57;;;;;;;6.15;5.13;;;15.40;99.90;;;;;;6302886;28;20081;-84
2021/08/01 02:32:58;;;;;;;6.50;4.72;;;15.40;99.90;;;;;;6286371;28;20114;-84
2021/08/01 02:36:00;;;;;;;5.38;4.30;;;15.30;99.90;;;;;;6302908;28;20082;-85
2021/08/01 02:39:02;;;;;;;5.00;4.13;;;15.20;99.90;;;;;;6303263;28;20024;-86
2021/08/01 02:42:03;;;;;;;4.40;3.90;;;15.20;99.90;;;;;;6286300;28;20115;-85
2021/08/01 02:45:04;;;;;;;7.65;4.03;;;15.10;99.90;;;;;;6286113;28;20020;-85
2021/08/01 02:48:04;;;;;;;4.63;3.65;;;15.10;99.90;;;;;;6285824;28;20031;-86
2021/08/01 02:51:05;;;;;;;5.32;3.90;;;15.00;99.90;;;;;;6285267;28;20020;-84
2021/08/01 02:54:06;;;;;;;5.53;4.20;;;15.00;99.90;;;;;;6285451;28;20139;-85
2021/08/01 02:57:08;;;;;;;5.30;3.78;;;15.00;99.90;;;;;;6285430;28;20123;-85
2021/08/01 03:00:10;;;;;;;;;;;15.00;99.90;;;;;;6286182;28;20450;-85
2021/08/01 03:03:10;;;;;;;5.70;4.22;;;15.00;99.90;;;;;;6302358;28;19900;-85
2021/08/01 03:06:12;;;;;;;7.22;4.43;;;15.00;99.90;;;;;;6285713;28;20472;-85
2021/08/01 03:09:12;;;;;;;9.33;4.47;;;15.00;99.90;;;;;;6285688;28;20024;-85
2021/08/01 03:12:14;;;;;;;7.03;4.63;;;15.00;99.90;;;;;;6301951;28;20175;-84
2021/08/01 03:15:15;;;;;;;6.45;4.22;;;15.10;99.90;;;;;;6285515;28;20420;-85
2021/08/01 03:18:15;;;;;;;6.18;4.28;;;15.10;99.90;;;;;;6301627;28;20095;-86
2021/08/01 03:21:16;;;;;;;4.47;3.95;;;15.20;99.90;;;;;;6285277;28;20128;-85
2021/08/01 03:24:16;;;;;;;5.95;4.20;;;15.20;99.90;;;;;;6301880;28;20028;-84
2021/08/01 03:27:17;;;;;;;9.00;4.55;;;15.20;99.90;;;;;;6284688;28;20118;-86
2021/08/01 03:30:18;;;;;;;5.45;4.15;;;15.10;99.90;;;;;;6301852;28;20024;-85
2021/08/01 03:33:18;;;;;;;5.43;4.10;;;15.20;99.90;;;;;;6284716;28;20036;-85
2021/08/01 03:36:19;;;;;;;5.13;3.95;;;15.20;99.90;;;;;;6283974;28;20081;-86
2021/08/01 03:39:20;;;;;;;4.70;3.45;;;15.30;99.90;;;;;;6284824;28;20454;-86
2021/08/01 03:42:20;;;;;;;5.65;4.20;;;15.30;99.90;;;;;;6301280;28;20036;-86
2021/08/01 03:45:21;;;;;;;6.10;3.78;;;15.30;99.90;;;;;;6284309;28;20102;-86
2021/08/01 03:48:21;;;;;;;4.38;3.50;;;15.30;99.90;;;;;;6301378;28;20415;-85
2021/08/01 03:51:22;;;;;;;5.25;3.72;;;15.20;99.90;;;;;;6284468;28;20027;-85
2021/08/01 03:54:23;;;;;;;6.60;4.15;;;16.80;99.90;;;;;;6284174;28;20056;-84
2021/08/01 03:57:23;;;;;;;4.65;3.80;;;15.10;99.90;;;;;;6284092;28;20110;-84
2021/08/01 04:00:24;;;;;;;4.57;3.80;;;15.10;99.90;;;;;;6301037;28;20090;-84
2021/08/01 04:03:24;;;;;;;4.70;3.58;;;15.00;99.90;;;;;;6284435;28;20053;-84
2021/08/01 04:06:25;;;;;;;4.82;3.95;;;15.00;99.90;;;;;;6300917;28;20043;-84
2021/08/01 04:09:25;;;;;;;5.20;4.28;;;15.00;99.90;;;;;;6283988;28;20564;-84
2021/08/01 04:12:26;;;;;;;6.25;4.18;;;14.40;99.90;;;;;;6284052;28;20449;-84
2021/08/01 04:15:27;;;;;;;7.60;4.53;;;14.90;99.90;;;;;;6300068;28;20093;-85
2021/08/01 04:18:28;;;;;;;6.45;4.35;;;14.90;99.90;;;;;;6283954;28;20473;-85
2021/08/01 04:21:29;;;;;;;6.50;4.43;;;15.00;99.90;;;;;;6300382;28;20032;-85
2021/08/01 04:24:30;;;;;;;8.25;4.13;;;14.90;99.90;;;;;;6283710;28;20102;-85
2021/08/01 04:27:30;;;;;;;5.18;3.70;;;14.90;99.90;;;;;;6283808;28;20028;-84
2021/08/01 04:30:31;;;;;;;5.65;3.80;;;14.80;99.90;;;;;;6283216;28;20034;-84
2021/08/01 04:33:31;;;;;;;6.07;3.88;;;14.80;99.90;;;;;;6283180;28;20040;-85
2021/08/01 04:36:32;;;;;;;7.43;4.28;;;14.80;99.90;;;;;;6317191;28;20052;-84
2021/08/01 04:39:32;;;;;;;8.30;5.55;;;14.80;99.90;;;;;;6283084;28;20339;-84
2021/08/01 04:42:33;;;;;;;6.20;4.72;;;14.80;99.90;;;;;;6283766;28;20032;-84
2021/08/01 04:45:34;;;;;;;7.07;5.00;;;14.90;99.90;;;;;;6316442;28;20024;-84
2021/08/01 04:48:34;;;;;;;5.38;3.80;;;14.90;99.90;;;;;;6299876;28;20450;-84
2021/08/01 04:51:35;;;;;;;4.80;3.95;;;14.80;99.90;;;;;;6282596;28;20466;-84
2021/08/01 04:54:36;;;;;;;4.85;3.75;;;14.90;99.90;;;;;;6283124;28;20363;-83
2021/08/01 04:57:37;;;;;;;9.18;4.20;;;;;;;;;;6283387;28;20035;-84
2021/08/01 05:00:38;;;;;;;5.35;4.10;;;14.80;99.90;;;;;;6318123;28;20454;-84
2021/08/01 05:03:38;;;;;;;5.93;4.03;;;15.00;99.90;;;;;;6283061;28;20028;-84
2021/08/01 05:06:39;;;;;;;5.45;3.28;;;14.90;99.90;;;;;;6283133;28;20024;-84
2021/08/01 05:09:40;;;;;;;4.40;3.53;;;14.90;99.90;;;;;;6282955;28;20024;-83
2021/08/01 05:12:40;;;;;;;6.03;3.70;;;14.70;99.90;;;;;;6283001;28;20355;-84
2021/08/01 05:15:41;;;;;;;6.50;3.55;;;15.10;99.90;;;;;;6316752;28;20028;-84
2021/08/01 05:18:42;;;;;;;6.28;4.13;;;14.80;99.90;;;;;;6282635;28;20028;-84
2021/08/01 05:21:43;;;;;;;7.25;4.00;;;14.90;99.90;;;;;;6300236;28;20020;-84
2021/08/01 05:24:44;;;;;;;4.32;3.60;;;14.90;99.90;;;;;;6283159;28;20028;-85
2021/08/01 05:27:44;;;;;;;6.18;4.10;;;14.90;99.90;;;;;;6282501;28;20107;-84
2021/08/01 05:30:45;;;;;;;5.65;3.60;;;14.70;99.90;;;;;;6282920;28;20032;-84
2021/08/01 05:33:45;;;;;;;6.35;3.40;;;14.80;99.90;;;;;;6282972;28;20046;-85
2021/08/01 05:36:46;;;;;;;5.05;3.85;;;14.80;99.90;;;;;;6282184;28;20028;-84
2021/08/01 05:39:47;;;;;;;4.75;3.78;;;15.00;99.90;;;;;;6282333;28;20426;-84
2021/08/01 05:42:47;;;;;;;4.82;3.70;;;14.90;99.90;;;;;;6282721;28;20039;-84
2021/08/01 05:45:48;;;;;;;4.65;3.70;;;15.00;99.90;;;;;;6282580;28;20028;-85
2021/08/01 05:48:48;;;;;;;5.00;3.75;;;15.00;99.90;;;;;;6299430;28;20012;-83
2021/08/01 05:51:49;;;;;;;5.88;3.83;;;15.10;99.90;;;;;;6281933;28;20052;-85
2021/08/01 05:54:53;;;;;;;4.97;3.50;;;15.10;99.90;;;;;;6282267;28;20450;-86
2021/08/01 05:57:54;;;;;;;4.43;3.78;;;15.10;99.90;;;;;;6282405;28;20028;-83
2021/08/01 06:00:54;;;;;;;3.90;3.50;;;15.20;99.90;;;;;;6300760;28;20472;-83
2021/08/01 06:03:55;;;;;;;5.22;3.92;;;15.20;99.90;;;;;;6287128;28;20032;-86
2021/08/01 06:06:56;;;;;;;5.75;3.70;;;15.20;99.90;;;;;;6303133;28;20028;-83
2021/08/01 06:09:56;;;;;;;5.82;4.00;;;15.30;99.90;;;;;;6286415;28;20101;-85
2021/08/01 06:12:57;;;;;;;6.60;3.50;;;15.30;99.90;;;;;;6286706;28;20137;-85
2021/08/01 06:15:58;;;;;;;5.38;3.50;;;15.30;99.90;;;;;;6286808;28;20024;-84
2021/08/01 06:18:58;;;;;;;4.60;3.83;;;15.30;99.90;;;;;;6303391;28;20062;-85
2021/08/01 06:21:59;;;;;;;4.10;3.60;;;15.40;99.90;;;;;;6286867;28;20069;-81
2021/08/01 06:24:59;;;;;;;5.60;4.53;;;15.50;99.90;;;;;;6319855;28;20640;-83
2021/08/01 06:28:00;;;;;;;4.90;4.03;;;15.40;99.90;;;;;;6286152;28;20024;-83
2021/08/01 06:31:01;;;;;;;4.68;3.67;;;15.50;99.90;;;;;;6320017;28;20028;-85
2021/08/01 06:34:02;;;;;;;4.82;3.80;;;15.50;99.90;;;;;;6286383;28;20374;-84
2021/08/01 06:37:03;;;;;;;6.95;4.50;;;15.60;99.90;;;;;;6286592;28;20024;-85
2021/08/01 06:40:04;;;;;;;6.60;4.13;;;15.60;99.90;;;;;;6303119;28;20035;-87
2021/08/01 06:43:04;;;;;;;4.93;3.67;;;15.60;99.90;;;;;;6302997;28;20024;-84
2021/08/01 06:46:05;;;;;;;5.00;3.25;;;15.30;99.90;;;;;;6302922;28;20024;-83
2021/08/01 06:49:05;;;;;;;4.53;3.70;;;15.60;99.90;;;;;;6302897;28;20031;-87
2021/08/01 06:52:06;;;;;;;6.18;3.63;;;15.80;99.90;;;;;;6285526;28;20673;-85
2021/08/01 06:55:07;;;;;;;4.63;3.85;;;15.70;99.90;;;;;;6319165;28;20454;-84
2021/08/01 06:58:07;;;;;;;6.90;4.05;;;15.70;99.90;;;;;;6285636;28;20028;-84
2021/08/01 07:01:08;;;;;;;6.70;4.85;;;15.80;99.90;;;;;;6302505;28;20028;-81
2021/08/01 07:04:09;;;;;;;4.55;3.47;;;15.90;99.90;;;;;;6302094;28;20082;-81
2021/08/01 07:07:09;;;;;;;6.38;3.60;;;16.00;99.90;;;;;;6318751;28;20032;-84
2021/08/01 07:10:10;;;;;;;8.63;4.25;;;16.00;99.90;;;;;;6302004;28;20040;-80
2021/08/01 07:13:11;;;;;;;5.28;3.80;;;16.00;99.90;;;;;;6284627;28;20078;-84
2021/08/01 07:16:11;;;;;;;6.40;4.50;;;16.00;99.90;;;;;;6284718;28;20103;-83
2021/08/01 07:19:12;;;;;;;4.07;3.67;;;16.00;99.90;;;;;;6284788;28;20032;-84
2021/08/01 07:22:12;;;;;;;4.25;3.63;;;16.00;99.90;;;;;;6301390;28;20357;-83
2021/08/01 07:25:13;;;;;;;5.43;3.70;;;16.20;99.90;;;;;;6284928;28;20028;-83
2021/08/01 07:28:14;;;;;;;4.75;4.25;;;16.00;99.90;;;;;;6284559;28;20470;-82
2021/08/01 07:31:15;;;;;;;6.65;4.25;;;;;;;;;;6319797;28;20446;-84
2021/08/01 07:34:15;;;;;;;6.28;3.92;;;16.10;99.90;;;;;;6318311;28;20035;-84
2021/08/01 07:37:19;;;;;;;5.18;4.43;;;16.20;99.90;;;;;;6301291;28;20474;-90
2021/08/01 07:40:20;;;;;;;5.10;4.05;;;16.20;99.90;;;;;;6301271;28;20020;-89
2021/08/01 07:43:21;;;;;;;6.90;3.88;;;16.10;99.90;;;;;;6285263;28;20035;-92
2021/08/01 07:46:24;;;;;;;6.70;3.78;;;15.90;99.90;;;;;;6283438;28;20028;-87
2021/08/01 07:49:25;;;;;;;4.47;3.60;;;16.00;99.90;;;;;;6285034;28;20074;-87
2021/08/01 07:52:26;;;;;;;5.63;4.03;;;16.00;99.90;;;;;;6301202;28;20388;-84
2021/08/01 07:55:30;;;;;;;5.05;3.65;;;16.00;99.90;;;;;;6284343;28;20031;-89
2021/08/01 07:58:30;;;;;;;4.20;3.80;;;15.90;99.90;;;;;;6284324;28;20080;-86
2021/08/01 08:01:31;;;;;;;5.07;3.65;;;15.90;99.90;;;;;;6284475;28;20032;-86
2021/08/01 08:04:56;;;;;;;6.43;3.75;;;16.00;99.90;;;;;;6284775;28;20057;-89
2021/08/01 08:07:56;;;;;;;7.60;4.00;;;15.80;99.90;;;;;;6300592;28;20173;-81
2021/08/01 08:10:57;;;;;;;4.47;3.40;;;16.00;99.90;;;;;;6299291;28;20028;-83
2021/08/01 08:13:58;;;;;;;5.63;3.63;;;16.10;99.90;;;;;;6283785;28;20040;-83
2021/08/01 08:16:59;;;;;;;5.80;3.60;;;16.10;99.90;;;;;;6283505;28;20359;-85
2021/08/01 08:20:01;;;;;;;3.75;3.35;;;16.10;99.90;;;;;;6283006;28;20165;-85
2021/08/01 08:23:01;;;;;;;4.28;3.80;;;16.10;99.90;;;;;;6283562;28;20530;-83
2021/08/01 08:26:02;;;;;;;6.88;4.90;;;16.30;99.90;;;;;;6299914;28;20032;-83
2021/08/01 08:29:03;;;;;;;7.07;4.55;;;16.30;99.90;;;;;;6300346;28;20024;-85
2021/08/01 08:32:03;;;;;;;6.18;4.22;;;16.30;99.90;;;;;;6283226;28;20119;-86
2021/08/01 08:35:04;;;;;;;6.30;4.20;;;16.30;99.90;;;;;;6299792;28;20468;-85
2021/08/01 08:38:05;;;;;;;5.47;4.07;;;16.40;99.90;;;;;;6299620;28;20036;-85
2021/08/01 08:41:06;;;;;;;6.72;3.67;;;16.50;99.90;;;;;;6299665;28;20020;-85
2021/08/01 08:44:06;;;;;;;5.03;3.95;;;16.70;99.90;;;;;;6299051;28;20035;-84
2021/08/01 08:47:07;;;;;;;5.38;3.83;;;16.70;99.90;;;;;;6300076;28;20062;-87
2021/08/01 08:50:07;;;;;;;4.13;3.72;;;16.80;99.90;;;;;;6300069;28;20032;-84
2021/08/01 08:53:08;;;;;;;4.50;4.05;;;16.90;99.90;;;;;;6299129;28;20482;-84
2021/08/01 08:56:09;;;;;;;4.72;3.75;;;17.10;99.90;;;;;;6299931;28;20059;-84
2021/08/01 08:59:19;;;;;;;9.23;4.10;;;17.30;99.90;;;;;;6283214;28;20450;-86
2021/08/01 09:02:19;;;;;;;4.22;3.83;;;17.60;99.90;;;;;;6284973;28;20064;-84
2021/08/01 09:05:20;;;;;;;5.28;4.03;;;17.50;99.90;;;;;;6283183;28;20028;-84
2021/08/01 09:08:21;;;;;;;8.23;4.00;;;17.90;99.90;;;;;;6282741;28;20362;-87
2021/08/01 09:11:21;;;;;;;6.30;4.15;;;18.00;99.90;;;;;;6300181;28;20462;-85
2021/08/01 09:14:22;;;;;;;4.95;3.70;;;18.20;99.90;;;;;;6282501;28;20048;-84
2021/08/01 09:17:36;;;;;;;7.18;3.88;;;18.40;99.90;;;;;;6299872;28;20064;-85
2021/08/01 09:20:44;;;;;;;4.53;3.55;;;18.50;99.90;;;;;;6282259;28;20458;-83
2021/08/01 09:23:50;;;;;;;7.63;3.60;;;18.70;99.90;;;;;;6284032;28;20074;-86
2021/08/01 09:26:50;;;;;;;5.97;3.85;;;19.00;99.90;;;;;;6300323;28;20529;-88
2021/08/01 09:29:51;;;;;;;7.22;4.45;;;19.20;99.90;;;;;;6283243;28;20111;-86
2021/08/01 09:32:52;;;;;;;5.80;3.63;;;19.10;99.90;;;;;;6282694;28;20649;-85
2021/08/01 09:36:04;;;;;;;5.70;3.78;;;19.30;99.90;;;;;;6285508;28;20115;-85
2021/08/01 09:39:05;;;;;;;4.25;3.78;;;19.40;99.90;;;;;;6304486;28;20028;-87
2021/08/01 09:42:05;;;;;;;6.35;3.45;;;19.40;99.90;;;;;;6287440;28;20043;-86
2021/08/01 09:45:17;;;;;;;4.68;3.63;;;19.40;99.90;;;;;;6287480;28;20085;-85
2021/08/01 09:48:19;;;;;;;6.25;3.80;;;19.50;99.90;;;;;;6287648;28;20024;-85
2021/08/01 09:51:20;;;;;;;7.03;3.95;;;19.70;99.90;;;;;;6320769;28;20355;-86
2021/08/01 09:54:22;;;;;;;5.57;3.85;;;19.80;99.90;;;;;;6286767;28;20052;-85
2021/08/01 09:57:23;;;;;;;5.05;3.90;;;20.00;99.90;;;;;;6303973;28;20023;-86
2021/08/01 10:00:24;;;;;;;6.20;3.58;;;20.30;99.90;;;;;;6287010;28;20028;-85
2021/08/01 10:03:43;;;;;;;5.43;3.47;;;20.90;99.90;;;;;;6287017;28;20179;-86
2021/08/01 10:06:57;;;;;;;4.45;3.25;;;21.30;99.90;;;;;;6303933;28;20043;-86
2021/08/01 10:09:57;;;;;;;5.97;3.75;;;21.70;99.90;;;;;;6288652;28;20029;-86
2021/08/01 10:12:58;;;;;;;5.05;3.22;;;22.40;99.90;;;;;;6286320;28;20032;-86
2021/08/01 10:15:59;;;;;;;5.72;3.53;;;23.30;99.70;;;;;;6303316;28;20563;-85
2021/08/01 10:18:59;;;;;;;5.15;3.75;;;23.90;98.30;;;;;;6286488;28;20475;-86
2021/08/01 10:22:03;;;;;;;6.35;3.03;;;24.50;97.90;;;;;;6286228;28;20025;-85
2021/08/01 10:25:15;;;;;;;5.45;2.95;;;25.20;94.90;;;;;;6303887;28;20053;-85
2021/08/01 10:28:19;;;;;;;4.75;3.00;;;25.20;94.80;;;;;;6287136;28;20038;-85
2021/08/01 10:32:02;;;;;;;4.97;3.30;;;25.80;95.70;;;;;;6303240;28;20036;-85
2021/08/01 10:35:08;;;;;;;3.50;3.20;;;26.20;93.70;;;;;;6301367;28;20505;-85
2021/08/01 10:38:11;;;;;;;5.10;3.15;;;25.80;93.30;;;;;;6286467;28;20036;-85
2021/08/01 10:41:12;;;;;;;4.60;3.35;;;25.40;93.60;;;;;;6286682;28;20030;-85
2021/08/01 10:44:12;;;;;;;5.37;3.57;;;25.50;93.40;;;;;;6284639;28;20028;-85
2021/08/01 10:47:13;;;;;;;3.40;3.10;;;26.10;95.60;;;;;;6286043;28;20123;-84
2021/08/01 10:50:18;;;;;;;4.97;3.10;;;26.30;92.60;;;;;;6284398;28;20031;-84
2021/08/01 10:53:19;;;;;;;5.43;3.00;;;;;;;;;;6284909;28;20051;-84
2021/08/01 10:56:32;;;;;;;6.23;3.50;;;26.50;91.10;;;;;;6317672;28;20467;-83
2021/08/01 10:59:45;;;;;;;5.85;3.58;;;26.50;90.60;;;;;;6318554;28;20024;-84
2021/08/01 11:02:47;;;;;;;5.00;3.10;;;25.50;91.70;;;;;;6317587;28;20418;-84
2021/08/01 11:05:48;;;;;;;4.78;3.17;;;24.60;92.60;;;;;;6300614;28;20036;-83
2021/08/01 11:09:08;;;;;;;4.68;3.15;;;24.00;93.50;;;;;;6284875;28;20039;-83
2021/08/01 11:12:29;;;;;;;7.40;3.88;;;23.50;93.80;;;;;;6285313;28;20481;-82
2021/08/01 11:15:56;;;;;;;5.38;3.42;;;23.20;94.30;;;;;;6301558;28;20032;-81
2021/08/01 11:18:57;;;;;;;5.28;3.47;;;23.00;95.20;;;;;;6315561;28;20048;-82
2021/08/01 11:21:58;;;;;;;6.47;3.83;;;22.80;94.90;;;;;;6301460;28;20453;-83
2021/08/01 11:25:17;;;;;;;4.60;3.75;;;22.80;95.50;;;;;;6318949;28;20062;-82
2021/08/01 11:28:27;;;;;;;4.50;3.85;;;22.70;95.50;;;;;;6318143;28;20031;-82
2021/08/01 11:31:28;;;;;;;10.68;4.10;;;22.50;96.10;;;;;;6286360;28;20377;-82
2021/08/01 11:34:28;;;;;;;4.47;3.78;;;22.40;97.60;;;;;;6318009;28;20078;-83
2021/08/01 11:37:29;;;;;;;4.45;3.80;;;22.10;98.20;;;;;;6301232;28;20061;-82
2021/08/01 11:40:43;;;;;;;3.13;2.83;;;21.70;99.10;;;;;;6284150;28;20028;-81
2021/08/01 11:43:56;;;;;;;4.50;2.97;;;21.10;99.90;;;;;;6301099;28;20024;-82
2021/08/01 11:47:00;;;;;;;3.85;2.78;;;20.50;99.90;;;;;;6300079;28;20070;-82
2021/08/01 11:50:01;;;;;;;3.88;2.70;;;19.70;99.90;;;;;;6300759;28;20031;-81
2021/08/01 11:53:01;;;;;;;2.97;2.63;;;19.10;99.90;;;;;;6282902;28;20048;-81
2021/08/01 11:56:02;;;;;;;5.00;2.80;;;18.60;99.90;;;;;;6300521;28;20052;-82
2021/08/01 11:59:03;;;;;;;3.28;2.40;;;18.40;99.90;;;;;;6282510;28;20024;-82
2021/08/01 12:02:14;;;;;;;4.07;2.70;;;17.80;99.90;;;;;;6299230;28;20028;-82
2021/08/01 12:05:15;;;;;;;2.92;2.40;;;17.80;99.90;;;;;;6316663;28;20032;-81
2021/08/01 12:08:31;;;;;;;3.55;2.80;;;17.50;99.90;;;;;;6300758;28;20027;-84
2021/08/01 12:11:32;;;;;;;4.88;2.90;;;17.40;99.90;;;;;;6317216;28;20056;-81
2021/08/01 12:14:34;;;;;;;3.40;2.50;;;17.40;99.90;;;;;;6300052;28;20046;-79
2021/08/01 12:17:35;;;;;;;3.15;2.85;;;17.30;99.90;;;;;;6318284;28;20020;-81
2021/08/01 12:20:37;;;;;;;2.58;2.38;;;17.30;99.90;;;;;;6300235;28;20028;-82
2021/08/01 12:23:38;;;;;;;5.55;3.03;;;17.50;99.90;;;;;;6283731;28;20035;-81
2021/08/01 12:26:39;;;;;;;3.05;2.70;;;17.70;99.90;;;;;;6300227;28;20454;-81
2021/08/01 12:30:09;;;;;;;4.85;3.00;;;17.60;99.90;;;;;;6282761;28;20043;-81
2021/08/01 12:33:10;;;;;;;3.47;3.15;;;17.70;99.90;;;;;;6315232;28;20125;-83
2021/08/01 12:36:12;;;;;;;3.88;3.45;;;17.50;99.90;;;;;;6299337;28;20461;-81
2021/08/01 12:39:16;;;;;;;3.03;2.78;;;17.50;99.90;;;;;;6299551;28;20028;-82
2021/08/01 12:42:18;;;;;;;3.58;2.70;;;17.40;99.90;;;;;;6283788;28;20068;-81
2021/08/01 12:45:18;;;;;;;3.13;2.80;;;17.30;99.90;;;;;;6283275;28;20032;-80
2021/08/01 12:48:23;;;;;;;4.00;3.38;;;17.30;99.90;;;;;;6299701;28;20181;-84
2021/08/01 12:51:24;;;;;;;3.38;2.80;;;16.90;99.90;;;;;;6283080;28;20028;-82
2021/08/01 12:54:25;;;;;;;5.13;3.72;;;17.20;99.90;;;;;;6282855;28;20425;-81
2021/08/01 12:57:25;;;;;;;5.10;4.35;;;17.30;99.90;;;;;;6299347;28;20343;-81
2021/08/01 13:00:29;;;;;;;5.10;4.15;;;17.20;99.90;;;;;;6316007;28;20233;-82
2021/08/01 13:03:31;;;;;;;4.60;3.80;;;17.10;99.90;;;;;;6283570;28;20031;-81
2021/08/01 13:06:32;;;;;;;4.13;3.60;;;17.20;99.90;;;;;;6299601;28;20028;-80
2021/08/01 13:09:33;;;;;;;6.17;3.07;;;17.30;99.90;;;;;;6282836;28;20119;-83
2021/08/01 13:12:34;;;;;;;3.38;2.80;;;17.40;99.90;;;;;;6319187;28;20032;-80
2021/08/01 13:15:36;;;;;;;3.25;2.90;;;17.50;99.90;;;;;;6302507;28;20093;-81
2021/08/01 13:18:36;;;;;;;;;;;17.50;99.90;;;;;;6286894;28;20426;-81
2021/08/01 13:21:37;;;;;;;3.13;2.78;;;17.60;99.90;;;;;;6320468;28;19908;-80
2021/08/01 13:24:48;;;;;;;4.07;2.80;;;17.90;99.90;;;;;;6321185;28;20034;-81
2021/08/01 13:27:50;;;;;;;4.25;3.10;;;18.20;99.90;;;;;;6322631;28;20039;-81
2021/08/01 13:31:03;;;;;;;5.15;2.80;;;18.50;99.90;;;;;;6304599;28;20028;-83
2021/08/01 13:34:05;;;;;;;2.92;2.60;;;18.80;99.90;;;;;;6304281;28;20049;-80
2021/08/01 13:37:32;;;;;;;4.00;2.40;;;18.80;99.90;;;;;;6320638;28;20115;-81
2021/08/01 13:40:37;;;;;;;4.30;2.90;;;19.10;99.90;;;;;;6318931;28;20397;-80
2021/08/01 13:43:38;;;;;;;3.08;2.42;;;19.30;99.90;;;;;;6303284;28;20024;-81
2021/08/01 13:46:39;;;;;;;3.35;2.55;;;19.40;99.90;;;;;;6303646;28;20019;-80
2021/08/01 13:49:40;;;;;;;3.13;2.58;;;19.40;99.90;;;;;;6320360;28;20031;-80
2021/08/01 13:52:48;;;;;;;2.50;2.30;;;19.70;99.90;;;;;;6286762;28;20056;-83
2021/08/01 13:55:50;;;;;;;2.60;2.40;;;19.90;99.90;;;;;;6303265;28;20060;-80
2021/08/01 13:58:50;;;;;;;3.47;2.43;;;20.10;99.90;;;;;;6303393;28;20020;-80
2021/08/01 14:01:51;;;;;;;2.85;2.53;;;20.30;99.90;;;;;;6319769;28;20321;-81
2021/08/01 14:04:52;;;;;;;3.70;2.50;;;20.20;99.90;;;;;;6320167;28;20020;-81
2021/08/01 14:07:52;;;;;;;4.28;2.65;;;20.20;99.90;;;;;;6303542;28;20404;-83
2021/08/01 14:10:53;;;;;;;3.10;2.58;;;20.40;99.90;;;;;;6321485;28;20076;-83
2021/08/01 14:13:54;;;;;;;2.60;2.30;;;20.40;99.90;;;;;;6320070;28;20075;-81
2021/08/01 14:16:54;;;;;;;3.17;2.47;;;20.30;99.90;;;;;;6303187;28;20059;-84
2021/08/01 14:19:55;;;;;;;3.60;2.80;;;20.40;99.90;;;;;;6319993;28;20032;-81
2021/08/01 14:22:56;;;;;;;2.28;2.08;;;20.60;99.90;;;;;;6320352;28;20102;-81
2021/08/01 14:25:57;;;;;;;2.50;2.30;;;20.70;99.60;;;;;;6302743;28;20023;-82
2021/08/01 14:28:57;;;;;;;2.63;2.42;;;20.50;98.90;;;;;;6302626;28;20016;-81
2021/08/01 14:31:58;;;;;;;3.10;2.50;;;20.30;98.50;;;;;;6303022;28;20035;-81
2021/08/01 14:34:59;;;;;;;2.90;2.60;;;20.10;99.10;;;;;;6302747;28;20533;-81
2021/08/01 14:38:02;;;;;;;2.90;2.50;;;20.30;99.90;;;;;;6302920;28;20442;-81
2021/08/01 14:41:03;;;;;;;2.92;2.40;;;20.30;99.90;;;;;;6301808;28;20066;-80
2021/08/01 14:44:04;;;;;;;2.72;2.53;;;20.50;99.90;;;;;;6302470;28;20107;-80
2021/08/01 14:47:13;;;;;;;2.70;2.50;;;20.60;99.90;;;;;;6302626;28;20767;-81
2021/08/01 14:50:58;;;;;;;4.22;2.70;;;20.60;99.00;;;;;;6288061;28;20027;-83
2021/08/01 14:53:37;;;;;;;5.90;2.97;;;20.70;99.70;;;;;;6295560;28;20105;-85
2021/08/01 14:56:42;;;;;;;3.97;2.80;;;20.80;99.90;;;;;;6319874;28;20450;-84
2021/08/01 14:59:46;;;;;;;7.38;2.90;;;20.90;99.40;;;;;;6285883;28;20123;-86
2021/08/01 15:02:50;;;;;;;5.25;2.97;;;21.10;99.90;;;;;;6318042;28;20036;-83
2021/08/01 15:06:04;;;;;;;5.53;3.00;;;21.20;99.90;;;;;;6319320;28;20103;-80
2021/08/01 15:09:23;;;;;;;3.13;2.83;;;21.30;99.90;;;;;;6303815;28;20046;-78
2021/08/01 15:12:28;;;;;;;3.33;2.88;;;21.10;99.40;;;;;;6317972;28;20369;-80
2021/08/01 15:15:32;;;;;;;4.78;3.03;;;21.00;99.90;;;;;;6301775;28;20024;-78
2021/08/01 15:18:35;;;;;;;5.18;3.13;;;20.90;99.90;;;;;;6284638;28;20069;-79
2021/08/01 15:21:52;;;;;;;3.83;2.97;;;20.80;99.90;;;;;;6317662;28;20012;-79
2021/08/01 15:24:56;;;;;;;4.80;2.63;;;20.70;99.90;;;;;;6300964;28;20032;-79
2021/08/01 15:27:56;;;;;;;3.05;2.70;;;20.30;99.90;;;;;;6300777;28;20365;-78
2021/08/01 15:30:57;;;;;;;3.08;2.63;;;20.30;99.90;;;;;;6300688;28;20055;-78
2021/08/01 15:33:58;;;;;;;3.53;2.50;;;20.20;99.90;;;;;;6299227;28;20509;-82
2021/08/01 15:36:58;;;;;;;5.30;3.40;;;20.20;99.90;;;;;;6317384;28;20073;-80
2021/08/01 15:40:04;;;;;;;3.30;3.00;;;20.20;99.90;;;;;;6297665;28;20514;-81
2021/08/01 15:43:04;;;;;;;5.00;2.92;;;20.20;99.90;;;;;;6300400;28;20027;-82
2021/08/01 15:46:06;;;;;;;4.50;3.28;;;20.30;99.90;;;;;;6283744;28;20035;-79
2021/08/01 15:49:08;;;;;;;3.45;2.85;;;20.40;99.90;;;;;;6300109;28;20373;-82
2021/08/01 15:52:09;;;;;;;;;;;20.40;99.90;;;;;;6301080;28;20423;-79
2021/08/01 15:55:14;;;;;;;3.30;2.95;;;20.30;99.90;;;;;;6319032;28;19922;-81